createdAt,value
2023-03-06T00:02:15.640Z,2.42
2023-03-06T00:07:17.079Z,2.36
2023-03-06T00:12:18.491Z,2.31
2023-03-06T00:17:19.898Z,2.31
2023-03-06T00:22:21.355Z,2.28
2023-03-06T00:27:26.045Z,2.24
2023-03-06T00:32:28.401Z,2.21
2023-03-06T00:37:30.135Z,2.18
2023-03-06T00:42:31.594Z,2.16
2023-03-06T00:47:33.060Z,2.20
2023-03-06T00:52:34.542Z,2.19
2023-03-06T00:57:36.522Z,2.13
2023-03-06T01:02:38.249Z,2.07
2023-03-06T01:07:39.738Z,2.06
2023-03-06T01:12:41.194Z,2.07
2023-03-06T01:17:42.685Z,2.07
2023-03-06T01:22:44.366Z,2.07
2023-03-06T01:27:45.809Z,2.10
2023-03-06T01:32:48.044Z,2.14
2023-03-06T01:37:49.460Z,2.17
2023-03-06T01:42:51.165Z,2.17
2023-03-06T01:47:52.584Z,2.19
2023-03-06T01:52:57.700Z,2.20
2023-03-06T01:58:03.321Z,2.20
2023-03-06T02:03:10.352Z,2.22
2023-03-06T02:08:16.698Z,2.19
2023-03-06T02:13:18.609Z,2.14
2023-03-06T02:18:20.058Z,2.10
2023-03-06T02:24:07.288Z,2.05
2023-03-06T02:29:09.239Z,1.93
2023-03-06T02:34:16.675Z,1.87
2023-03-06T02:39:21.755Z,1.83
2023-03-06T02:44:24.176Z,1.88
2023-03-06T02:49:26.606Z,1.91
2023-03-06T02:54:28.048Z,1.92
2023-03-06T02:59:29.497Z,1.85
2023-03-06T03:04:32.027Z,1.85
2023-03-06T03:09:36.872Z,1.85
2023-03-06T03:14:38.730Z,1.84
2023-03-06T03:19:40.360Z,1.84
2023-03-06T03:24:42.412Z,1.82
2023-03-06T03:29:44.651Z,1.81
2023-03-06T03:34:46.886Z,1.79
2023-03-06T03:39:48.473Z,1.77
2023-03-06T03:44:50.200Z,1.77
2023-03-06T03:49:54.793Z,1.77
2023-03-06T03:54:57.315Z,1.77
2023-03-06T04:00:01.225Z,1.80
2023-03-06T04:05:23.170Z,1.80
2023-03-06T04:10:24.653Z,1.81
2023-03-06T04:15:26.353Z,1.81
2023-03-06T04:20:28.527Z,1.81
2023-03-06T04:25:31.719Z,1.79
2023-03-06T04:30:36.602Z,1.78
2023-03-06T04:35:38.610Z,1.78
2023-03-06T04:40:46.152Z,1.78
2023-03-06T04:45:47.887Z,1.70
2023-03-06T04:50:49.354Z,1.58
2023-03-06T04:55:50.764Z,1.51
2023-03-06T05:00:52.311Z,1.44
2023-03-06T05:05:53.810Z,1.41
2023-03-06T05:11:00.668Z,1.46
2023-03-06T05:16:06.655Z,1.48
2023-03-06T05:21:08.271Z,1.44
2023-03-06T05:26:11.095Z,1.44
2023-03-06T05:31:12.558Z,1.47
2023-03-06T05:36:14.035Z,1.49
2023-03-06T05:41:15.627Z,1.53
2023-03-06T05:46:17.083Z,1.58
2023-03-06T05:51:18.602Z,1.59
2023-03-06T05:56:21.661Z,1.62
2023-03-06T06:01:25.188Z,1.65
2023-03-06T06:06:26.597Z,1.65
2023-03-06T06:11:28.086Z,1.64
2023-03-06T06:16:29.502Z,1.59
2023-03-06T06:21:30.986Z,1.54
2023-03-06T06:26:32.430Z,1.56
2023-03-06T06:31:33.954Z,1.66
2023-03-06T06:36:35.623Z,1.77
2023-03-06T06:41:57.028Z,1.85
2023-03-06T06:47:21.696Z,1.98
2023-03-06T06:52:20.420Z,2.05
2023-03-06T06:57:21.939Z,2.14
2023-03-06T07:02:23.406Z,2.24
2023-03-06T07:07:26.502Z,2.30
2023-03-06T07:12:27.996Z,2.37
2023-03-06T07:17:29.462Z,2.44
2023-03-06T07:22:41.409Z,2.51
2023-03-06T07:27:54.560Z,2.58
2023-03-06T07:32:57.669Z,2.66
2023-03-06T07:37:59.134Z,2.72
2023-03-06T07:43:16.874Z,2.83
2023-03-06T07:48:23.905Z,2.92
2023-03-06T07:53:25.914Z,2.97
2023-03-06T07:58:27.391Z,3.01
2023-03-06T08:03:28.845Z,3.13
2023-03-06T08:08:30.252Z,3.29
2023-03-06T08:13:31.801Z,3.42
2023-03-06T08:18:33.343Z,3.55
2023-03-06T08:23:35.543Z,3.66
2023-03-06T08:28:37.228Z,3.77
2023-03-06T08:33:40.151Z,3.89
2023-03-06T08:38:41.620Z,3.98
2023-03-06T08:43:43.224Z,4.06
2023-03-06T08:48:47.598Z,4.16
2023-03-06T08:53:50.377Z,4.25
2023-03-06T08:58:53.265Z,4.32
2023-03-06T09:03:57.305Z,4.41
2023-03-06T09:08:59.381Z,4.60
2023-03-06T09:14:01.012Z,4.78
2023-03-06T09:19:02.548Z,4.86
2023-03-06T09:24:04.986Z,4.88
2023-03-06T09:29:07.162Z,4.86
2023-03-06T09:34:08.625Z,4.81
2023-03-06T09:39:10.354Z,4.80
2023-03-06T09:44:15.125Z,4.89
2023-03-06T09:49:51.931Z,5.00
2023-03-06T09:54:56.898Z,5.20
2023-03-06T10:00:11.712Z,5.39
2023-03-06T10:05:21.306Z,5.42
2023-03-06T10:10:36.046Z,5.52
2023-03-06T10:15:46.090Z,5.72
2023-03-06T10:20:56.600Z,5.92
2023-03-06T10:26:08.424Z,6.02
2023-03-06T10:31:22.394Z,6.04
2023-03-06T10:36:27.178Z,5.94
2023-03-06T10:41:35.759Z,5.81
2023-03-06T10:46:39.689Z,5.56
2023-03-06T10:51:56.862Z,5.31
2023-03-06T10:57:18.246Z,5.35
2023-03-06T11:02:27.227Z,5.20
2023-03-06T11:07:31.861Z,5.08
2023-03-06T11:12:38.909Z,5.37
2023-03-06T11:17:51.019Z,5.69
2023-03-06T11:23:18.556Z,5.75
2023-03-06T11:28:31.590Z,5.63
2023-03-06T11:33:39.763Z,5.15
2023-03-06T11:38:50.253Z,4.59
2023-03-06T11:44:00.650Z,4.62
2023-03-06T11:49:12.125Z,4.83
2023-03-06T11:54:14.095Z,5.01
2023-03-06T11:59:36.250Z,5.28
2023-03-06T12:04:41.200Z,5.47
2023-03-06T12:09:47.592Z,5.55
2023-03-06T12:15:04.158Z,5.20
2023-03-06T12:20:23.919Z,4.76
2023-03-06T12:25:28.335Z,4.51
2023-03-06T12:30:35.594Z,4.71
2023-03-06T12:35:45.988Z,5.00
2023-03-06T12:41:12.368Z,5.09
2023-03-06T12:46:16.428Z,5.06
2023-03-06T12:51:20.891Z,5.05
2023-03-06T12:56:22.551Z,4.90
2023-03-06T13:01:46.059Z,4.60
2023-03-06T13:06:54.699Z,4.25
2023-03-06T13:12:25.150Z,3.89
2023-03-06T13:17:33.273Z,3.59
2023-03-06T13:22:34.876Z,3.71
2023-03-06T13:27:54.793Z,3.91
2023-03-06T13:32:56.364Z,4.15
2023-03-06T13:37:59.418Z,4.16
2023-03-06T13:43:15.086Z,4.05
2023-03-06T13:48:47.330Z,4.09
2023-03-06T13:54:23.080Z,4.44
2023-03-06T13:59:32.055Z,4.86
2023-03-06T14:04:46.386Z,5.20
2023-03-06T14:09:58.249Z,5.32
2023-03-06T14:15:14.970Z,5.46
2023-03-06T14:20:19.666Z,5.47
2023-03-06T14:25:30.143Z,5.41
2023-03-06T14:30:31.568Z,5.38
2023-03-06T14:35:34.257Z,5.25
2023-03-06T14:40:45.261Z,5.26
2023-03-06T14:45:59.603Z,5.27
2023-03-06T14:51:02.899Z,5.26
2023-03-06T14:56:06.665Z,5.31
2023-03-06T15:01:15.556Z,5.32
2023-03-06T15:06:20.881Z,5.20
2023-03-06T15:11:22.416Z,5.22
2023-03-06T15:16:30.025Z,5.30
2023-03-06T15:21:37.801Z,5.30
2023-03-06T15:26:40.451Z,5.24
2023-03-06T15:31:44.410Z,5.09
2023-03-06T15:36:57.412Z,4.99
2023-03-06T15:42:01.722Z,5.00
2023-03-06T15:47:08.770Z,5.02
2023-03-06T15:52:10.812Z,4.95
2023-03-06T15:57:21.951Z,4.21
2023-03-06T16:02:24.397Z,2.86
2023-03-06T16:07:28.000Z,2.33
2023-03-06T16:12:31.003Z,2.11
2023-03-06T16:17:32.764Z,1.98
2023-03-06T16:22:34.455Z,1.97
2023-03-06T16:27:36.410Z,1.85
2023-03-06T16:32:38.064Z,1.80
2023-03-06T16:37:40.736Z,1.72
2023-03-06T16:42:42.161Z,1.67
2023-03-06T16:47:45.234Z,1.67
2023-03-06T16:52:46.690Z,1.73
2023-03-06T16:57:48.310Z,1.81
2023-03-06T17:02:50.670Z,1.92
2023-03-06T17:07:52.277Z,2.01
2023-03-06T17:12:55.555Z,2.07
2023-03-06T17:17:58.073Z,2.11
2023-03-06T17:22:59.572Z,2.14
2023-03-06T17:28:01.121Z,2.18
2023-03-06T17:33:02.727Z,2.21
2023-03-06T17:38:04.207Z,2.21
2023-03-06T17:43:05.731Z,2.21
2023-03-06T17:48:07.187Z,2.18
2023-03-06T17:53:09.070Z,2.17
2023-03-06T17:58:12.359Z,2.18
2023-03-06T18:03:14.171Z,2.16
2023-03-06T18:22:03.333Z,2.10
2023-03-06T18:33:36.557Z,2.08
2023-03-06T18:38:39.574Z,2.07
2023-03-06T18:43:41.028Z,2.10
2023-03-06T18:48:42.544Z,2.11
2023-03-06T18:53:44.072Z,2.11
2023-03-06T18:58:45.793Z,2.23
2023-03-06T19:03:47.281Z,2.33
2023-03-06T19:08:48.762Z,2.37
2023-03-06T19:13:50.211Z,2.40
2023-03-06T19:18:52.315Z,2.41
2023-03-06T19:23:54.505Z,2.38
2023-03-06T19:28:56.091Z,2.39
2023-03-06T19:33:57.694Z,2.37
2023-03-06T19:39:04.129Z,2.31
2023-03-06T19:44:05.868Z,2.35
2023-03-06T19:49:11.941Z,2.39
2023-03-06T19:54:13.933Z,2.45
2023-03-06T19:59:15.412Z,2.53
2023-03-06T20:04:17.020Z,2.60
2023-03-06T20:09:19.398Z,2.63
2023-03-06T20:14:20.977Z,2.57
2023-03-06T20:19:22.468Z,2.48
2023-03-06T20:24:25.840Z,2.41
2023-03-06T20:29:28.491Z,2.38
2023-03-06T20:34:30.391Z,2.36
2023-03-06T20:39:32.128Z,2.38
2023-03-06T20:44:33.810Z,2.44
2023-03-06T20:49:36.525Z,2.37
2023-03-06T20:54:38.035Z,2.26
2023-03-06T20:59:39.574Z,2.31
2023-03-06T21:04:41.099Z,2.43
2023-03-06T21:09:43.082Z,2.40
2023-03-06T21:14:44.498Z,2.29
2023-03-06T21:19:46.322Z,2.12
2023-03-06T21:24:47.780Z,2.08
2023-03-06T21:29:49.224Z,2.05
2023-03-06T21:34:50.763Z,2.04
2023-03-06T21:39:52.267Z,2.03
2023-03-06T21:44:53.726Z,2.01
2023-03-06T21:49:55.151Z,1.97
2023-03-06T21:54:56.590Z,1.91
2023-03-06T21:59:58.017Z,1.87
2023-03-06T22:04:59.490Z,1.75
2023-03-06T22:10:01.061Z,1.67
2023-03-06T22:15:02.540Z,1.67
2023-03-06T22:20:04.352Z,1.69
2023-03-06T22:25:06.124Z,1.74
2023-03-06T22:30:08.390Z,1.77
2023-03-06T22:35:09.871Z,1.83
2023-03-06T22:40:11.801Z,1.89
2023-03-06T22:45:13.234Z,1.90
2023-03-06T22:50:14.736Z,1.90
2023-03-06T22:55:16.196Z,1.99
2023-03-06T23:00:18.038Z,2.11
2023-03-06T23:05:19.554Z,2.20
2023-03-06T23:10:21.123Z,2.26
2023-03-06T23:15:41.311Z,2.30
2023-03-06T23:21:09.541Z,2.33
2023-03-06T23:26:31.329Z,2.35
2023-03-06T23:31:32.870Z,2.40
2023-03-06T23:36:34.305Z,2.45
2023-03-06T23:41:35.685Z,2.40
2023-03-06T23:46:37.240Z,2.34
2023-03-06T23:51:39.335Z,2.27
2023-03-06T23:56:40.726Z,2.24
